Time;durP1;ratioP1;P1;durP2;ratioP2;P2;SDS_P1;SDS_P2;PMS_P1;PMS_P2;Temp;Humidity;BMP_temperature;BMP_pressure;BME280_temperature;BME280_humidity;BME280_pressure;Samples;Min_cycle;Max_cycle;Signal;HPM_P1;HPM_P2
2023/04/17 00:02:12;;;;;;;46.47;20.05;;;;;;;;;;4882469;29;20449;-72
2023/04/17 00:04:39;;;;;;;52.75;22.48;;;;;;;;;;4867078;29;20120;-72
2023/04/17 00:07:06;;;;;;;49.53;22.35;;;;;;;;;;4883590;29;20063;-71
2023/04/17 00:09:32;;;;;;;53.30;23.52;;;;;;;;;;4901199;29;20127;-71
2023/04/17 00:11:58;;;;;;;51.83;23.77;;;;;;;;;;4900925;29;20497;-71
2023/04/17 00:14:24;;;;;;;53.20;22.00;;;;;;;;;;4900634;29;20527;-72
2023/04/17 00:16:51;;;;;;;46.13;22.23;;;;;;;;;;4889645;29;20048;-72
2023/04/17 00:19:17;;;;;;;58.25;22.88;;;;;;;;;;4888450;29;20114;-71
2023/04/17 00:21:43;;;;;;;55.78;22.63;;;;;;;;;;4884385;29;20072;-72
2023/04/17 00:24:11;;;;;;;44.33;21.23;;;;;;;;;;4900942;29;20096;-71
2023/04/17 00:26:38;;;;;;;42.35;20.98;;;;;;;;;;4900876;29;20047;-71
2023/04/17 00:29:04;;;;;;;47.95;21.10;;;;;;;;;;4883185;29;20047;-72
2023/04/17 00:31:30;;;;;;;44.58;21.23;;;;;;;;;;4882042;29;20056;-71
2023/04/17 00:33:57;;;;;;;44.10;20.30;;;;;;;;;;4894079;29;20390;-72
2023/04/17 00:36:24;;;;;;;46.13;20.85;;;;;;;;;;4901037;29;20040;-71
2023/04/17 00:38:50;;;;;;;52.17;20.88;;;;;;;;;;4900414;29;20091;-71
2023/04/17 00:41:16;;;;;;;43.22;19.60;;;;;;;;;;4900682;29;20045;-71
2023/04/17 00:43:42;;;;;;;43.70;19.52;;;;;;;;;;4907541;29;20044;-72
2023/04/17 00:46:09;;;;;;;51.65;19.65;;;;;;;;;;4866434;29;20048;-72
2023/04/17 00:48:36;;;;;;;48.30;19.10;;;7.40;99.90;;;;;;4891274;29;20048;-71
2023/04/17 00:51:03;;;;;;;45.80;20.02;;;;;;;;;;4887200;29;20070;-70
2023/04/17 00:53:32;;;;;;;41.83;18.80;;;7.40;99.90;;;;;;4899569;29;20044;-70
2023/04/17 00:55:59;;;;;;;38.95;17.35;;;;;;;;;;4881742;29;20521;-70
2023/04/17 00:58:26;;;;;;;38.05;17.00;;;7.50;99.90;;;;;;4900458;29;20052;-70
2023/04/17 01:00:52;;;;;;;50.50;18.92;;;;;;;;;;4900344;29;20095;-70
2023/04/17 01:03:18;;;;;;;44.15;17.23;;;;;;;;;;4913902;29;20504;-70
2023/04/17 01:05:48;;;;;;;48.88;19.17;;;7.10;99.90;;;;;;4866516;29;20088;-68
2023/04/17 01:08:15;;;;;;;51.28;20.30;;;;;;;;;;4881336;29;20497;-69
2023/04/17 01:10:41;;;;;;;53.53;19.98;;;;;;;;;;4881724;29;20055;-70
2023/04/17 01:13:07;;;;;;;52.20;20.17;;;;;;;;;;4881397;29;20058;-69
2023/04/17 01:15:34;;;;;;;52.45;21.70;;;7.60;99.90;;;;;;4897730;29;20480;-70
2023/04/17 01:18:00;;;;;;;70.15;22.13;;;;;;;;;;4866172;29;20059;-69
2023/04/17 01:20:30;;;;;;;52.00;21.30;;;;;;;;;;4866008;29;20048;-70
2023/04/17 01:22:59;;;;;;;53.55;21.30;;;;;;;;;;4881307;29;20037;-69
2023/04/17 01:25:26;;;;;;;53.00;20.67;;;;;;;;;;4881263;29;20060;-69
2023/04/17 01:27:52;;;;;;;54.80;21.48;;;;;;;;;;4881470;29;20370;-69
2023/04/17 01:30:18;;;;;;;49.55;21.60;;;;;;;;;;4881405;29;20397;-70
2023/04/17 01:32:44;;;;;;;58.50;22.42;;;;;;;;;;4881915;29;20053;-70
2023/04/17 01:35:11;;;;;;;54.42;22.08;;;;;;;;;;4881058;29;20085;-70
2023/04/17 01:37:37;;;;;;;46.33;19.63;;;;;;;;;;4865349;29;20139;-69
2023/04/17 01:40:06;;;;;;;45.20;20.33;;;;;;;;;;4862668;29;20044;-69
2023/04/17 01:42:33;;;;;;;48.65;20.02;;;7.00;99.90;;;;;;4916937;29;20120;-69
2023/04/17 01:44:59;;;;;;;44.40;20.05;;;;;;;;;;4884708;29;20044;-69
2023/04/17 01:47:25;;;;;;;50.40;21.17;;;;;;;;;;4899913;29;20131;-69
2023/04/17 01:49:51;;;;;;;47.38;20.85;;;;;;;;;;4899949;29;20396;-69
2023/04/17 01:52:17;;;;;;;77.25;21.65;;;;;;;;;;4900163;29;20115;-70
2023/04/17 01:54:43;;;;;;;64.10;22.67;;;;;;;;;;4899757;29;20044;-70
2023/04/17 01:57:09;;;;;;;61.45;23.67;;;;;;;;;;4885352;29;20044;-70
2023/04/17 01:59:35;;;;;;;63.83;22.95;;;;;;;;;;4883467;29;20045;-70
2023/04/17 02:02:01;;;;;;;51.88;22.42;;;;;;;;;;4884966;29;20041;-70
2023/04/17 02:04:27;;;;;;;54.35;21.60;;;;;;;;;;4889972;29;20520;-70
2023/04/17 02:06:53;;;;;;;51.05;21.52;;;;;;;;;;4903113;29;20090;-71
2023/04/17 02:09:19;;;;;;;50.05;21.33;;;;;;;;;;4887378;29;20052;-71
2023/04/17 02:11:45;;;;;;;51.53;20.33;;;;;;;;;;4902891;29;20421;-70
2023/04/17 02:14:11;;;;;;;53.22;21.83;;;;;;;;;;4892100;29;20135;-70
2023/04/17 02:16:38;;;;;;;54.78;23.67;;;;;;;;;;4901544;29;20563;-70
2023/04/17 02:19:04;;;;;;;51.70;20.73;;;;;;;;;;4903065;29;20072;-70
2023/04/17 02:21:30;;;;;;;58.38;22.15;;;;;;;;;;4920103;29;20043;-70
2023/04/17 02:23:57;;;;;;;62.22;21.15;;;;;;;;;;4902914;29;20051;-70
2023/04/17 02:26:23;;;;;;;57.28;22.60;;;;;;;;;;4902966;29;20075;-70
2023/04/17 02:28:49;;;;;;;57.15;21.77;;;;;;;;;;4899010;29;20040;-70
2023/04/17 02:31:15;;;;;;;45.92;20.85;;;;;;;;;;4869898;29;20040;-70
2023/04/17 02:33:41;;;;;;;42.95;19.17;;;;;;;;;;4884358;29;20564;-71
2023/04/17 02:36:07;;;;;;;60.83;20.55;;;;;;;;;;4881852;29;20370;-71
2023/04/17 02:38:33;;;;;;;49.70;18.10;;;;;;;;;;4884827;29;20041;-70
2023/04/17 02:40:59;;;;;;;63.55;19.42;;;;;;;;;;4884236;29;20048;-71
2023/04/17 02:43:25;;;;;;;61.65;18.50;;;;;;;;;;4884192;29;20117;-71
2023/04/17 02:45:51;;;;;;;53.15;19.48;;;;;;;;;;4895382;29;20131;-70
2023/04/17 02:48:17;;;;;;;47.60;19.35;;;;;;;;;;4902481;29;20044;-70
2023/04/17 02:50:44;;;;;;;51.30;19.38;;;;;;;;;;4902573;29;20046;-71
2023/04/17 02:53:10;;;;;;;54.10;20.40;;;;;;;;;;4902391;29;20048;-70
2023/04/17 02:55:36;;;;;;;63.38;21.42;;;;;;;;;;4902323;29;20059;-70
2023/04/17 02:58:02;;;;;;;73.75;22.40;;;;;;;;;;4902559;29;20044;-71
2023/04/17 03:00:28;;;;;;;95.15;23.33;;;;;;;;;;4886609;29;20198;-70
2023/04/17 03:02:55;;;;;;;68.53;23.67;;;;;;;;;;4890503;29;20071;-71
2023/04/17 03:05:22;;;;;;;94.10;23.33;;;;;;;;;;4900398;29;20092;-71
2023/04/17 03:07:49;;;;;;;83.40;23.45;;;;;;;;;;4883714;29;20056;-70
2023/04/17 03:10:15;;;;;;;66.30;22.83;;;;;;;;;;4882550;29;20041;-70
2023/04/17 03:12:41;;;;;;;103.80;24.08;;;;;;;;;;4868126;29;20049;-71
2023/04/17 03:15:08;;;;;;;66.18;22.52;;;;;;;;;;4883409;29;20084;-71
2023/04/17 03:17:34;;;;;;;62.95;23.35;;;;;;;;;;4883559;29;20044;-70
2023/04/17 03:20:01;;;;;;;52.90;21.90;;;;;;;;;;4883175;29;20123;-70
2023/04/17 03:22:27;;;;;;;47.70;21.60;;;;;;;;;;4885143;29;20051;-71
2023/04/17 03:24:53;;;;;;;49.60;21.75;;;;;;;;;;4883037;29;20056;-70
2023/04/17 03:27:23;;;;;;;50.38;20.83;;;;;;;;;;4886570;29;20067;-71
2023/04/17 03:29:50;;;;;;;63.17;22.77;;;7.10;99.90;;;;;;4901971;29;20134;-70
2023/04/17 03:32:16;;;;;;;43.90;21.13;;;7.10;99.90;;;;;;4917403;29;20516;-70
2023/04/17 03:34:42;;;;;;;59.03;22.05;;;;;;;;;;4883634;29;20498;-70
2023/04/17 03:37:08;;;;;;;63.40;23.90;;;;;;;;;;4904107;29;20067;-70
2023/04/17 03:39:35;;;;;;;111.15;23.67;;;;;;;;;;4901564;29;20044;-70
2023/04/17 03:42:01;;;;;;;177.63;22.63;;;;;;;;;;4901729;29;20040;-70
2023/04/17 03:44:27;;;;;;;122.15;23.92;;;;;;;;;;4901527;29;20055;-70
2023/04/17 03:46:53;;;;;;;170.40;22.52;;;;;;;;;;4899763;29;20048;-70
2023/04/17 03:49:19;;;;;;;312.17;23.02;;;;;;;;;;4883019;29;20076;-70
2023/04/17 03:51:45;;;;;;;110.75;22.60;;;;;;;;;;4882975;29;20048;-70
2023/04/17 03:54:11;;;;;;;269.13;23.08;;;;;;;;;;4882591;29;20076;-70
2023/04/17 03:56:37;;;;;;;221.02;22.00;;;;;;;;;;4883900;29;20069;-71
2023/04/17 03:59:04;;;;;;;226.18;24.65;;;;;;;;;;4883010;29;20040;-71
2023/04/17 04:01:31;;;;;;;135.48;22.60;;;;;;;;;;4882968;29;20095;-71
2023/04/17 04:03:58;;;;;;;71.20;21.70;;;6.80;99.90;;;;;;4882527;29;20132;-71
2023/04/17 04:06:28;;;;;;;106.18;19.60;;;;;;;;;;4867198;29;20494;-71
2023/04/17 04:08:54;;;;;;;68.70;20.40;;;;;;;;;;4882806;29;20137;-71
2023/04/17 04:11:20;;;;;;;191.55;21.50;;;;;;;;;;4867224;29;20071;-71
2023/04/17 04:13:46;;;;;;;117.68;21.50;;;;;;;;;;4882311;29;20052;-71
2023/04/17 04:16:12;;;;;;;108.63;22.38;;;;;;;;;;4866954;29;20048;-71
2023/04/17 04:18:38;;;;;;;131.18;22.80;;;;;;;;;;4895305;29;20059;-71
2023/04/17 04:21:05;;;;;;;115.35;22.25;;;;;;;;;;4901218;29;20048;-71
2023/04/17 04:23:32;;;;;;;118.95;23.45;;;;;;;;;;4918099;29;20048;-71
2023/04/17 04:26:00;;;;;;;119.20;22.60;;;;;;;;;;4901076;29;20052;-71
2023/04/17 04:28:27;;;;;;;95.57;22.48;;;;;;;;;;4889646;29;20051;-71
2023/04/17 04:30:54;;;;;;;254.68;24.13;;;;;;;;;;4882124;29;20127;-71
2023/04/17 04:33:20;;;;;;;170.50;22.92;;;6.80;99.90;;;;;;4866745;29;20473;-71
2023/04/17 04:35:46;;;;;;;130.95;23.25;;;;;;;;;;4881865;29;20111;-71
2023/04/17 04:38:13;;;;;;;173.90;22.10;;;;;;;;;;4874288;29;20068;-71
2023/04/17 04:40:42;;;;;;;168.05;23.02;;;;;;;;;;4904131;29;20386;-71
2023/04/17 04:43:09;;;;;;;169.75;22.85;;;6.80;99.90;;;;;;4882123;29;20489;-71
2023/04/17 04:45:35;;;;;;;184.25;22.73;;;;;;;;;;4881998;29;20059;-69
2023/04/17 04:48:02;;;;;;;112.88;21.40;;;;;;;;;;4866425;29;20132;-69
2023/04/17 04:50:28;;;;;;;175.85;22.75;;;;;;;;;;4898465;29;20445;-69
2023/04/17 04:52:54;;;;;;;180.93;22.58;;;;;;;;;;4881958;29;20104;-69
2023/04/17 04:55:20;;;;;;;253.43;21.77;;;;;;;;;;4898415;29;20044;-69
2023/04/17 04:57:46;;;;;;;248.45;20.83;;;;;;;;;;4881375;29;20501;-69
2023/04/17 05:00:13;;;;;;;121.45;20.05;;;;;;;;;;4881841;29;20047;-69
2023/04/17 05:02:39;;;;;;;156.02;20.90;;;;;;;;;;4881850;29;20080;-69
2023/04/17 05:05:08;;;;;;;191.88;20.73;;;;;;;;;;4881516;29;20057;-69
2023/04/17 05:07:34;;;;;;;281.90;23.30;;;;;;;;;;4881737;29;20499;-69
2023/04/17 05:10:00;;;;;;;221.60;20.08;;;;;;;;;;4897057;29;20040;-69
2023/04/17 05:12:26;;;;;;;321.40;21.98;;;;;;;;;;4884757;29;20485;-69
2023/04/17 05:14:52;;;;;;;292.60;20.27;;;;;;;;;;4894853;29;20139;-70
2023/04/17 05:17:18;;;;;;;266.67;21.80;;;;;;;;;;4890303;29;20040;-70
2023/04/17 05:19:44;;;;;;;219.75;21.27;;;;;;;;;;4886167;29;20140;-70
2023/04/17 05:22:11;;;;;;;303.42;21.42;;;;;;;;;;4895995;29;20039;-70
2023/04/17 05:24:37;;;;;;;179.18;22.48;;;;;;;;;;4896692;29;20107;-70
2023/04/17 05:27:03;;;;;;;193.88;22.83;;;;;;;;;;4884336;29;20745;-70
2023/04/17 05:29:29;;;;;;;351.42;24.08;;;;;;;;;;4900180;29;20048;-70
2023/04/17 05:31:55;;;;;;;276.80;23.63;;;;;;;;;;4884604;29;20044;-70
2023/04/17 05:34:21;;;;;;;180.15;23.50;;;;;;;;;;4901845;29;20060;-71
2023/04/17 05:36:47;;;;;;;285.75;23.58;;;;;;;;;;4884813;29;20036;-70
2023/04/17 05:39:13;;;;;;;178.85;22.25;;;;;;;;;;4884885;29;20040;-71
2023/04/17 05:41:39;;;;;;;167.23;22.77;;;;;;;;;;4885218;29;20554;-69
2023/04/17 05:44:06;;;;;;;119.70;22.58;;;;;;;;;;4885139;29;20044;-70
2023/04/17 05:46:32;;;;;;;221.95;22.08;;;;;;;;;;4869549;29;20438;-70
2023/04/17 05:48:58;;;;;;;229.75;23.10;;;;;;;;;;4885085;29;20443;-70
2023/04/17 05:51:25;;;;;;;106.35;21.88;;;;;;;;;;4870448;29;20048;-71
2023/04/17 05:53:51;;;;;;;118.28;21.13;;;;;;;;;;4902379;29;20481;-71
2023/04/17 05:56:17;;;;;;;118.05;20.45;;;;;;;;;;4903680;29;20048;-71
2023/04/17 05:58:44;;;;;;;169.95;21.80;;;;;;;;;;4888176;29;20040;-69
2023/04/17 06:01:11;;;;;;;108.82;22.08;;;;;;;;;;4901823;29;20409;-70
2023/04/17 06:03:37;;;;;;;109.13;22.35;;;;;;;;;;4884743;29;20498;-69
2023/04/17 06:06:04;;;;;;;108.35;22.00;;;;;;;;;;4884582;29;20056;-70
2023/04/17 06:08:30;;;;;;;100.20;21.27;;;;;;;;;;4884470;29;20501;-70
2023/04/17 06:10:56;;;;;;;93.65;20.70;;;;;;;;;;4885359;29;20032;-70
2023/04/17 06:13:23;;;;;;;71.82;20.00;;;;;;;;;;4869178;29;20045;-70
2023/04/17 06:15:50;;;;;;;63.28;21.60;;;;;;;;;;4915096;29;20052;-70
2023/04/17 06:18:16;;;;;;;77.82;23.02;;;;;;;;;;4903351;29;20409;-70
2023/04/17 06:20:43;;;;;;;87.80;20.35;;;7.10;99.90;;;;;;4902773;29;20062;-70
2023/04/17 06:23:09;;;;;;;92.78;22.02;;;;;;;;;;4899315;29;20080;-70
2023/04/17 06:25:35;;;;;;;60.10;19.77;;;;;;;;;;4911683;29;20400;-70
2023/04/17 06:28:05;;;;;;;62.65;20.45;;;;;;;;;;4893445;29;20054;-70
2023/04/17 06:30:31;;;;;;;52.60;19.85;;;;;;;;;;4894208;29;20408;-70
2023/04/17 06:32:57;;;;;;;55.47;19.70;;;;;;;;;;4894262;29;20048;-70
2023/04/17 06:35:23;;;;;;;56.80;20.02;;;;;;;;;;4892430;29;20052;-70
2023/04/17 06:37:49;;;;;;;58.25;19.95;;;;;;;;;;4877032;29;20556;-70
2023/04/17 06:40:15;;;;;;;57.63;21.58;;;;;;;;;;4892806;29;20048;-71
2023/04/17 06:42:41;;;;;;;55.55;20.65;;;;;;;;;;4878594;29;20052;-71
2023/04/17 06:45:07;;;;;;;74.53;21.65;;;7.70;99.90;;;;;;4893621;29;20499;-71
2023/04/17 06:47:33;;;;;;;56.80;20.27;;;;;;;;;;4877702;29;20488;-71
2023/04/17 06:49:59;;;;;;;63.97;21.95;;;;;;;;;;4882043;29;20392;-69
2023/04/17 06:52:26;;;;;;;68.63;21.33;;;;;;;;;;4893274;29;20125;-71
2023/04/17 06:54:53;;;;;;;68.40;21.10;;;;;;;;;;4892125;29;20044;-71
2023/04/17 06:57:20;;;;;;;65.38;20.92;;;;;;;;;;4893761;29;20045;-71
2023/04/17 06:59:47;;;;;;;74.80;21.80;;;6.20;99.90;;;;;;4895108;29;20050;-71
2023/04/17 07:02:13;;;;;;;67.05;19.88;;;;;;;;;;4875052;29;20044;-71
2023/04/17 07:04:39;;;;;;;63.22;23.95;;;;;;;;;;4884546;29;20067;-71
2023/04/17 07:07:05;;;;;;;79.55;23.60;;;;;;;;;;4883446;29;20450;-71
2023/04/17 07:09:32;;;;;;;66.25;21.83;;;;;;;;;;4883451;29;20049;-73
2023/04/17 07:11:58;;;;;;;62.80;21.98;;;;;;;;;;4883440;29;20044;-72
2023/04/17 07:14:27;;;;;;;57.88;23.60;;;;;;;;;;4900245;29;20052;-71
2023/04/17 07:16:53;;;;;;;61.40;22.75;;;;;;;;;;4885643;29;21254;-71
2023/04/17 07:19:19;;;;;;;63.85;23.20;;;;;;;;;;4894614;29;20127;-71
2023/04/17 07:21:45;;;;;;;55.80;22.20;;;;;;;;;;4893293;29;20047;-71
2023/04/17 07:24:12;;;;;;;42.03;18.63;;;;;;;;;;4894209;29;20064;-71
2023/04/17 07:26:39;;;;;;;51.85;20.73;;;;;;;;;;4878409;29;20048;-72
2023/04/17 07:29:05;;;;;;;48.63;20.58;;;;;;;;;;4893266;29;20572;-71
2023/04/17 07:31:31;;;;;;;53.83;21.40;;;;;;;;;;4891879;29;20044;-71
2023/04/17 07:33:57;;;;;;;50.53;21.15;;;;;;;;;;4890954;29;20036;-71
2023/04/17 07:36:23;;;;;;;59.58;22.67;;;;;;;;;;4893658;29;20041;-71
2023/04/17 07:38:49;;;;;;;48.10;20.98;;;;;;;;;;4886719;29;20123;-72
2023/04/17 07:41:15;;;;;;;44.58;20.35;;;;;;;;;;4892519;29;20043;-72
2023/04/17 07:43:42;;;;;;;54.97;21.40;;;;;;;;;;4885770;29;20048;-72
2023/04/17 07:46:08;;;;;;;61.42;20.40;;;;;;;;;;4894640;29;20496;-72
2023/04/17 07:48:34;;;;;;;64.55;24.10;;;;;;;;;;4889031;29;20041;-71
2023/04/17 07:51:00;;;;;;;59.92;21.77;;;;;;;;;;4876020;29;20057;-71
2023/04/17 07:53:27;;;;;;;55.58;22.48;;;;;;;;;;4893672;29;20132;-71
2023/04/17 07:55:54;;;;;;;54.20;21.35;;;7.80;99.90;;;;;;4892309;29;20040;-72
2023/04/17 07:58:22;;;;;;;54.63;21.40;;;;;;;;;;4874135;29;20040;-72
2023/04/17 08:00:49;;;;;;;52.80;21.80;;;;;;;;;;4890957;29;20056;-72
2023/04/17 08:03:15;;;;;;;51.00;21.13;;;;;;;;;;4887263;29;20485;-72
2023/04/17 08:05:41;;;;;;;54.40;20.88;;;;;;;;;;4894491;29;20063;-71
2023/04/17 08:08:07;;;;;;;51.30;22.67;;;;;;;;;;4897818;29;20044;-72
2023/04/17 08:10:33;;;;;;;52.63;20.92;;;;;;;;;;4896629;29;20084;-72
2023/04/17 08:13:00;;;;;;;46.97;20.80;;;;;;;;;;4896401;29;20552;-72
2023/04/17 08:15:26;;;;;;;47.83;19.52;;;;;;;;;;4882934;29;20068;-72
2023/04/17 08:17:53;;;;;;;40.88;20.35;;;;;;;;;;4885061;29;20040;-77
2023/04/17 08:20:19;;;;;;;38.38;19.40;;;;;;;;;;4882430;29;20040;-75
2023/04/17 08:22:45;;;;;;;40.40;20.20;;;;;;;;;;4899073;29;20048;-72
2023/04/17 08:25:12;;;;;;;44.40;19.60;;;;;;;;;;4874894;29;20044;-75
2023/04/17 08:27:39;;;;;;;42.92;20.25;;;;;;;;;;4889683;29;20052;-76
2023/04/17 08:30:05;;;;;;;44.40;20.55;;;;;;;;;;4899360;29;20050;-72
2023/04/17 08:32:41;;;;;;;41.65;19.30;;;;;;;;;;4882982;29;20052;-72
2023/04/17 08:35:11;;;;;;;38.25;19.80;;;8.20;99.90;;;;;;4886774;29;20398;-78
2023/04/17 08:37:38;;;;;;;44.08;19.35;;;;;;;;;;4897075;29;21531;-77
2023/04/17 08:40:08;;;;;;;37.38;18.75;;;8.10;99.90;;;;;;4877692;29;20072;-77
2023/04/17 08:42:40;;;;;;;40.97;19.05;;;8.30;99.90;;;;;;4889732;29;20041;-71
2023/04/17 08:45:11;;;;;;;40.55;20.33;;;8.30;99.90;;;;;;4881326;29;20063;-72
2023/04/17 08:47:41;;;;;;;44.88;20.67;;;8.20;99.90;;;;;;4897310;29;20054;-72
2023/04/17 08:50:12;;;;;;;43.15;21.05;;;;;;;;;;4884770;29;20437;-70
2023/04/17 08:52:46;;;;;;;48.13;20.92;;;8.50;99.90;;;;;;4886453;29;20044;-72
2023/04/17 08:55:16;;;;;;;44.70;20.80;;;8.30;99.90;;;;;;4913887;29;20079;-72
2023/04/17 08:57:54;;;;;;;51.35;22.63;;;;;;;;;;4898319;29;20075;-76
2023/04/17 09:00:27;;;;;;;56.33;23.27;;;8.50;99.90;;;;;;4885615;29;20067;-72
2023/04/17 09:02:54;;;;;;;59.35;23.70;;;;;;;;;;4904721;29;20119;-70
2023/04/17 09:05:22;;;;;;;58.03;23.33;;;;;;;;;;4863745;29;20056;-70
2023/04/17 09:08:08;;;;;;;52.65;24.00;;;8.50;99.90;;;;;;4910735;29;20036;-71
2023/04/17 09:10:35;;;;;;;57.63;25.88;;;;;;;;;;4894558;29;20124;-71
2023/04/17 09:13:02;;;;;;;53.95;24.17;;;;;;;;;;4896318;29;20083;-71
2023/04/17 09:15:28;;;;;;;52.00;24.02;;;;;;;;;;4896583;29;20568;-70
2023/04/17 09:17:54;;;;;;;41.42;21.30;;;;;;;;;;4897273;29;20091;-71
2023/04/17 09:20:20;;;;;;;36.50;19.52;;;;;;;;;;4895936;29;20044;-71
2023/04/17 09:22:47;;;;;;;32.47;18.23;;;;;;;;;;4882547;29;20047;-71
2023/04/17 09:25:22;;;;;;;36.03;19.00;;;9.00;99.90;;;;;;4894868;29;20496;-71
2023/04/17 09:27:48;;;;;;;35.17;19.10;;;;;;;;;;4897960;29;20131;-70
2023/04/17 09:30:14;;;;;;;35.35;17.67;;;;;;;;;;4876760;29;20126;-70
2023/04/17 09:32:40;;;;;;;30.20;17.65;;;;;;;;;;4887171;29;20045;-71
2023/04/17 09:35:06;;;;;;;30.02;17.35;;;;;;;;;;4884583;29;20466;-70
2023/04/17 09:37:49;;;;;;;35.22;17.95;;;9.50;99.90;;;;;;4896698;29;20047;-71
2023/04/17 09:40:15;;;;;;;34.70;17.88;;;9.50;99.90;;;;;;4895690;29;20052;-71
2023/04/17 09:42:54;;;;;;;29.08;17.58;;;9.50;99.90;;;;;;4880048;29;20112;-71
2023/04/17 09:45:23;;;;;;;30.73;17.00;;;;;;;;;;4889030;29;20040;-71
2023/04/17 09:47:50;;;;;;;28.63;16.17;;;9.50;99.90;;;;;;4897719;29;20052;-72
2023/04/17 09:50:20;;;;;;;29.50;17.25;;;10.20;99.90;;;;;;4912064;29;20040;-72
2023/04/17 09:52:48;;;;;;;33.22;18.40;;;9.80;99.90;;;;;;4897799;29;20052;-71
2023/04/17 09:55:15;;;;;;;31.27;18.63;;;;;;;;;;4893730;29;20044;-72
2023/04/17 09:57:41;;;;;;;33.97;20.05;;;;;;;;;;4886460;29;20047;-72
2023/04/17 10:00:13;;;;;;;29.83;17.48;;;9.80;99.90;;;;;;4914799;29;20040;-71
2023/04/17 10:02:41;;;;;;;29.40;18.45;;;;;;;;;;4896131;29;20127;-71
2023/04/17 10:05:08;;;;;;;30.25;18.42;;;;;;;;;;4893668;29;20056;-71
2023/04/17 10:07:35;;;;;;;31.55;18.25;;;;;;;;;;4868007;29;20062;-70
2023/04/17 10:10:08;;;;;;;30.08;18.35;;;;;;;;;;4888678;29;20036;-70
2023/04/17 10:12:35;;;;;;;31.40;17.63;;;;;;;;;;4891887;29;20058;-71
2023/04/17 10:15:02;;;;;;;25.92;16.45;;;10.50;99.90;;;;;;4889745;29;20520;-71
2023/04/17 10:17:32;;;;;;;29.38;17.67;;;10.30;99.90;;;;;;4890956;29;20044;-71
2023/04/17 10:20:16;;;;;;;29.33;16.95;;;10.60;99.90;;;;;;4886515;29;20137;-70
2023/04/17 10:23:24;;;;;;;27.05;16.70;;;10.70;99.90;;;;;;4893259;29;20051;-71
2023/04/17 10:26:39;;;;;;;26.05;16.92;;;11.10;99.90;;;;;;4890586;29;20048;-71
2023/04/17 10:29:05;;;;;;;24.55;15.43;;;;;;;;;;4856349;29;20076;-71
2023/04/17 10:31:50;;;;;;;26.00;16.58;;;;;;;;;;4892204;29;20043;-72
2023/04/17 10:34:38;;;;;;;27.15;16.02;;;;;;;;;;4892546;29;20103;-72
2023/04/17 10:37:04;;;;;;;27.30;16.88;;;;;;;;;;4891132;29;20083;-72
2023/04/17 10:39:50;;;;;;;25.77;17.40;;;;;;;;;;4893296;29;20051;-72
2023/04/17 10:42:18;;;;;;;24.48;16.38;;;;;;;;;;4883458;29;20437;-72
2023/04/17 10:44:45;;;;;;;25.90;17.13;;;;;;;;;;4895011;29;20098;-72
2023/04/17 10:47:14;;;;;;;25.33;16.75;;;;;;;;;;4880275;29;20058;-72
2023/04/17 10:49:57;;;;;;;26.13;17.15;;;;;;;;;;4883776;29;20123;-72
2023/04/17 10:52:50;;;;;;;25.95;17.58;;;;;;;;;;4881772;29;20378;-72
2023/04/17 10:55:23;;;;;;;26.00;16.15;;;11.70;99.90;;;;;;4883277;29;20048;-72
2023/04/17 10:58:02;;;;;;;24.70;16.38;;;11.90;99.90;;;;;;4887253;29;20545;-72
2023/04/17 11:00:47;;;;;;;23.85;15.43;;;11.70;99.90;;;;;;4885967;29;20044;-72
2023/04/17 11:03:14;;;;;;;24.95;15.57;;;12.00;99.90;;;;;;4873388;29;20377;-72
2023/04/17 11:05:44;;;;;;;21.88;14.20;;;;;;;;;;4891654;29;20088;-71
2023/04/17 11:08:10;;;;;;;22.77;14.52;;;;;;;;;;4887366;29;20044;-71
2023/04/17 11:10:37;;;;;;;22.88;14.40;;;;;;;;;;4888196;29;20124;-71
2023/04/17 11:13:03;;;;;;;27.05;15.32;;;;;;;;;;4888784;29;20055;-72
2023/04/17 11:15:30;;;;;;;26.58;17.50;;;;;;;;;;4889938;29;20112;-72
2023/04/17 11:17:56;;;;;;;26.45;17.02;;;;;;;;;;4907272;29;20481;-72
2023/04/17 11:20:30;;;;;;;26.70;15.82;;;;;;;;;;4893492;29;20374;-72
2023/04/17 11:22:57;;;;;;;26.55;17.10;;;;;;;;;;4894487;29;20045;-72
2023/04/17 11:25:24;;;;;;;23.70;17.02;;;;;;;;;;4893649;29;20063;-72
2023/04/17 11:27:54;;;;;;;26.98;16.73;;;12.70;99.90;;;;;;4883126;29;20048;-71
2023/04/17 11:30:24;;;;;;;24.85;15.68;;;;;;;;;;4871295;29;20083;-72
2023/04/17 11:32:51;;;;;;;23.27;15.38;;;;;;;;;;4872604;29;20050;-71
2023/04/17 11:35:22;;;;;;;25.02;14.82;;;13.10;99.90;;;;;;4877929;29;20059;-71
2023/04/17 11:38:22;;;;;;;20.88;14.98;;;13.20;99.90;;;;;;4882814;29;20076;-71
2023/04/17 11:40:53;;;;;;;24.85;15.45;;;13.30;99.90;;;;;;4900012;29;20120;-71
2023/04/17 11:43:20;;;;;;;24.80;15.82;;;13.30;99.90;;;;;;4891176;29;20488;-71
2023/04/17 11:45:52;;;;;;;22.55;15.13;;;13.30;99.90;;;;;;4898185;29;20063;-70
2023/04/17 11:48:21;;;;;;;23.52;16.05;;;;;;;;;;4897859;29;20041;-71
2023/04/17 11:50:48;;;;;;;26.15;15.30;;;;;;;;;;4882898;29;20397;-71
2023/04/17 11:53:16;;;;;;;26.55;15.60;;;13.60;99.90;;;;;;4884501;29;20056;-70
2023/04/17 11:55:42;;;;;;;24.20;15.07;;;;;;;;;;4885369;29;20052;-70
2023/04/17 11:58:10;;;;;;;23.83;15.65;;;14.00;99.90;;;;;;4901144;29;20072;-70
2023/04/17 12:00:37;;;;;;;26.05;15.35;;;;;;;;;;4876037;29;20044;-71
2023/04/17 12:03:33;;;;;;;26.42;16.33;;;13.90;99.90;;;;;;4882564;29;20079;-70
2023/04/17 12:06:03;;;;;;;29.88;17.73;;;14.10;99.90;;;;;;4870585;29;20079;-70
2023/04/17 12:08:30;;;;;;;27.60;17.35;;;;;;;;;;4848994;29;20104;-70
2023/04/17 12:10:56;;;;;;;28.45;18.10;;;14.10;99.90;;;;;;4864351;29;20049;-70
2023/04/17 12:13:23;;;;;;;25.92;17.38;;;;;;;;;;4848824;29;20052;-70
2023/04/17 12:15:50;;;;;;;29.98;18.27;;;;;;;;;;4863895;29;20061;-70
2023/04/17 12:18:16;;;;;;;28.85;18.08;;;;;;;;;;4863783;29;20501;-70
2023/04/17 12:20:42;;;;;;;26.52;18.08;;;;;;;;;;4863757;29;20056;-70
2023/04/17 12:23:08;;;;;;;31.48;18.98;;;;;;;;;;4863815;29;20060;-70
2023/04/17 12:25:34;;;;;;;39.15;18.30;;;;;;;;;;4863649;29;20045;-70
2023/04/17 12:28:03;;;;;;;30.60;17.98;;;14.30;99.90;;;;;;4863942;29;20195;-70
2023/04/17 12:30:29;;;;;;;27.25;17.88;;;;;;;;;;4863492;29;20091;-70
2023/04/17 12:32:56;;;;;;;30.80;18.05;;;;;;;;;;4863911;29;20545;-71
2023/04/17 12:35:22;;;;;;;36.03;19.77;;;14.50;99.90;;;;;;4863260;29;20045;-70
2023/04/17 12:37:50;;;;;;;71.63;19.48;;;14.80;99.90;;;;;;4863534;29;20165;-70
2023/04/17 12:40:20;;;;;;;73.80;21.95;;;14.60;99.90;;;;;;4863322;29;20072;-70
2023/04/17 12:42:47;;;;;;;27.27;18.50;;;;;;;;;;4863293;29;20052;-70
2023/04/17 12:45:14;;;;;;;27.50;18.33;;;14.60;99.90;;;;;;4862581;29;20045;-70
2023/04/17 12:47:41;;;;;;;30.60;19.02;;;;;;;;;;4863316;29;20517;-71
2023/04/17 12:50:09;;;;;;;31.85;19.58;;;15.40;99.90;;;;;;4863622;29;20060;-70
2023/04/17 12:52:35;;;;;;;31.08;18.80;;;;;;;;;;4863434;29;20081;-70
2023/04/17 12:55:02;;;;;;;32.85;19.58;;;;;;;;;;4863354;29;20044;-72
2023/04/17 12:57:28;;;;;;;27.65;18.75;;;;;;;;;;4863263;29;20073;-72
2023/04/17 12:59:55;;;;;;;29.85;18.90;;;;;;;;;;4863365;29;20097;-71
2023/04/17 13:02:22;;;;;;;29.48;19.00;;;;;;;;;;4846348;29;20127;-70
2023/04/17 13:04:51;;;;;;;44.28;19.73;;;15.00;99.90;;;;;;4875791;29;20442;-67
2023/04/17 13:07:18;;;;;;;34.47;19.70;;;15.00;99.90;;;;;;4898144;29;20047;-68
2023/04/17 13:09:44;;;;;;;29.27;18.73;;;;;;;;;;4881029;29;20485;-68
2023/04/17 13:12:12;;;;;;;28.70;18.05;;;14.90;99.90;;;;;;4881526;29;20048;-68
2023/04/17 13:14:38;;;;;;;31.33;19.48;;;;;;;;;;4880360;29;20044;-68
2023/04/17 13:17:05;;;;;;;34.83;19.42;;;;;;;;;;4897295;29;20045;-71
2023/04/17 13:19:34;;;;;;;32.72;19.42;;;;;;;;;;4881249;29;20055;-72
2023/04/17 13:22:00;;;;;;;29.65;19.15;;;;;;;;;;4881480;29;20107;-72
2023/04/17 13:24:27;;;;;;;29.45;20.23;;;;;;;;;;4881179;29;20490;-70
2023/04/17 13:26:53;;;;;;;34.13;19.92;;;;;;;;;;4881599;29;20486;-71
2023/04/17 13:29:19;;;;;;;28.65;20.75;;;;;;;;;;4898021;29;20052;-71
2023/04/17 13:31:45;;;;;;;28.20;20.50;;;15.10;99.90;;;;;;4881187;29;20570;-71
2023/04/17 13:34:11;;;;;;;33.80;20.30;;;;;;;;;;4881195;29;20048;-72
2023/04/17 13:36:37;;;;;;;28.67;19.60;;;;;;;;;;4881855;29;20076;-79
2023/04/17 13:39:06;;;;;;;29.33;19.63;;;;;;;;;;4881996;29;20088;-83
2023/04/17 13:41:32;;;;;;;27.20;19.38;;;;;;;;;;4866906;29;20044;-71
2023/04/17 13:43:58;;;;;;;28.67;20.45;;;;;;;;;;4866115;29;20052;-71
2023/04/17 13:46:24;;;;;;;25.08;17.70;;;;;;;;;;4898014;29;20104;-70
2023/04/17 13:48:50;;;;;;;27.52;18.65;;;;;;;;;;4881384;29;20052;-71
2023/04/17 13:51:16;;;;;;;31.38;19.63;;;16.50;99.90;;;;;;4881358;29;20128;-71
2023/04/17 13:53:42;;;;;;;26.70;18.15;;;16.50;99.90;;;;;;4881521;29;20127;-71
2023/04/17 13:56:08;;;;;;;28.20;17.33;;;16.20;99.90;;;;;;4901276;29;20044;-71